Time;durP1;ratioP1;P1;durP2;ratioP2;P2;SDS_P1;SDS_P2;PMS_P1;PMS_P2;Temp;Humidity;BMP_temperature;BMP_pressure;BME280_temperature;BME280_humidity;BME280_pressure;Samples;Min_cycle;Max_cycle;Signal;HPM_P1;HPM_P2
2021/07/16 00:02:06;;;;;;;3.73;3.43;;;14.50;99.90;;;;;;5078349;28;20189;-82
2021/07/16 00:04:32;;;;;;;3.90;3.60;;;14.60;99.90;;;;;;5085366;28;20331;-81
2021/07/16 00:06:58;;;;;;;3.67;3.37;;;14.10;99.90;;;;;;5088013;28;20526;-82
2021/07/16 00:09:24;;;;;;;4.00;3.67;;;14.50;99.90;;;;;;5079620;28;20182;-81
2021/07/16 00:11:49;;;;;;;3.60;3.30;;;14.10;99.90;;;;;;5085823;28;20534;-81
2021/07/16 00:14:15;;;;;;;4.13;3.83;;;14.20;99.90;;;;;;5091885;28;20576;-82
2021/07/16 00:16:41;;;;;;;3.90;3.60;;;14.30;99.90;;;;;;5078411;28;20265;-81
2021/07/16 00:19:06;;;;;;;3.73;3.43;;;13.80;99.90;;;;;;5083510;28;20209;-81
2021/07/16 00:21:33;;;;;;;3.77;3.47;;;13.90;99.90;;;;;;5090563;28;20185;-81
2021/07/16 00:23:59;;;;;;;3.60;3.30;;;13.90;99.90;;;;;;5092564;28;20431;-81
2021/07/16 00:26:24;;;;;;;4.23;3.70;;;13.90;99.90;;;;;;5090703;28;20431;-81
2021/07/16 00:28:50;;;;;;;4.13;3.73;;;13.80;99.90;;;;;;5091046;28;20942;-81
2021/07/16 00:31:15;;;;;;;3.50;3.30;;;13.80;99.90;;;;;;5089833;28;20252;-83
2021/07/16 00:33:41;;;;;;;3.27;2.97;;;13.60;99.90;;;;;;5086267;28;20184;-81
2021/07/16 00:36:07;;;;;;;4.30;2.90;;;13.70;99.90;;;;;;5091861;28;20717;-82
2021/07/16 00:38:32;;;;;;;4.33;2.70;;;13.70;99.90;;;;;;5076748;28;20234;-81
2021/07/16 00:40:58;;;;;;;3.03;2.87;;;13.60;99.90;;;;;;5084986;28;20181;-82
2021/07/16 00:43:24;;;;;;;3.33;3.03;;;13.80;99.90;;;;;;5090971;28;20573;-81
2021/07/16 00:45:50;;;;;;;2.83;2.63;;;13.40;99.90;;;;;;5088113;28;20443;-82
2021/07/16 00:48:16;;;;;;;3.70;3.40;;;13.40;99.90;;;;;;5089189;28;20196;-81
2021/07/16 00:50:42;;;;;;;2.70;2.50;;;13.50;99.90;;;;;;5089173;28;20443;-81
2021/07/16 00:53:14;;;;;;;3.47;3.17;;;13.40;99.90;;;;;;5078067;28;20267;-81
2021/07/16 00:55:41;;;;;;;3.07;2.70;;;13.50;99.90;;;;;;5088078;28;20582;-82
2021/07/16 00:58:07;;;;;;;3.77;3.47;;;13.40;99.90;;;;;;5092430;28;20447;-82
2021/07/16 01:00:33;;;;;;;4.47;4.00;;;13.10;99.90;;;;;;5088989;28;20804;-81
2021/07/16 01:02:58;;;;;;;3.27;3.00;;;13.20;99.90;;;;;;5083437;28;20435;-79
2021/07/16 01:05:25;;;;;;;3.67;3.30;;;13.10;99.90;;;;;;5083864;28;20181;-78
2021/07/16 01:07:51;;;;;;;3.70;3.40;;;13.40;99.90;;;;;;5090092;28;20189;-79
2021/07/16 01:10:18;;;;;;;3.13;2.93;;;13.10;99.90;;;;;;5091856;28;20478;-79
2021/07/16 01:12:50;;;;;;;4.63;4.23;;;13.10;99.90;;;;;;5083147;28;20432;-78
2021/07/16 01:15:17;;;;;;;5.00;4.50;;;13.30;99.90;;;;;;5078412;28;20483;-80
2021/07/16 01:17:44;;;;;;;4.73;3.87;;;13.20;99.90;;;;;;5084584;28;20958;-78
2021/07/16 01:20:22;;;;;;;5.10;4.47;;;13.50;99.90;;;;;;5090115;28;20503;-78
2021/07/16 01:22:49;;;;;;;4.83;4.50;;;13.50;99.90;;;;;;5077084;28;20431;-78
2021/07/16 01:25:20;;;;;;;4.07;3.77;;;13.50;99.90;;;;;;5091883;28;20434;-81
2021/07/16 01:27:47;;;;;;;4.40;4.10;;;13.60;99.90;;;;;;5085585;28;20490;-81
2021/07/16 01:30:15;;;;;;;5.73;4.50;;;13.60;99.90;;;;;;5088500;28;20431;-80
2021/07/16 01:32:41;;;;;;;5.90;4.93;;;13.60;99.90;;;;;;5090928;28;20436;-80
2021/07/16 01:35:09;;;;;;;6.13;5.07;;;13.70;99.90;;;;;;5088282;28;20988;-81
2021/07/16 01:37:37;;;;;;;5.47;4.80;;;13.50;99.90;;;;;;5079216;28;20178;-81
2021/07/16 01:40:05;;;;;;;5.97;5.27;;;13.80;99.90;;;;;;5084552;28;20438;-80
2021/07/16 01:42:35;;;;;;;4.87;4.47;;;13.50;99.90;;;;;;5090589;28;20954;-80
2021/07/16 01:45:04;;;;;;;5.53;4.63;;;13.70;99.90;;;;;;5084979;28;20526;-80
2021/07/16 01:47:30;;;;;;;8.87;7.97;;;13.70;99.90;;;;;;5077908;28;20468;-80
2021/07/16 01:49:56;;;;;;;8.07;7.30;;;13.60;99.90;;;;;;5095180;28;20800;-80
2021/07/16 01:52:22;;;;;;;7.87;7.03;;;13.50;99.90;;;;;;5090743;28;20501;-81
2021/07/16 01:54:47;;;;;;;8.30;6.40;;;13.60;99.90;;;;;;5093030;28;20206;-80
2021/07/16 01:57:13;;;;;;;6.77;6.10;;;13.40;99.90;;;;;;5089303;28;20190;-80
2021/07/16 01:59:38;;;;;;;6.33;5.73;;;13.60;99.90;;;;;;5091487;28;20185;-80
2021/07/16 02:02:04;;;;;;;6.10;5.60;;;13.50;99.90;;;;;;5090362;28;20184;-80
2021/07/16 02:04:30;;;;;;;5.63;5.03;;;13.50;99.90;;;;;;5095258;28;20218;-81
2021/07/16 02:06:57;;;;;;;6.60;5.30;;;13.70;99.90;;;;;;5093604;28;20443;-80
2021/07/16 02:09:23;;;;;;;5.43;4.93;;;13.50;99.90;;;;;;5094555;28;20864;-81
2021/07/16 02:11:49;;;;;;;5.50;5.00;;;13.60;99.90;;;;;;5086696;28;20458;-80
2021/07/16 02:14:15;;;;;;;4.70;4.30;;;13.70;99.90;;;;;;5094644;28;20466;-81
2021/07/16 02:16:40;;;;;;;5.20;4.80;;;13.70;99.90;;;;;;5085551;28;20668;-81
2021/07/16 02:19:06;;;;;;;5.47;4.97;;;13.80;99.90;;;;;;5084872;28;20527;-80
2021/07/16 02:21:31;;;;;;;6.87;4.50;;;13.60;99.90;;;;;;5090340;28;20188;-80
2021/07/16 02:23:57;;;;;;;4.53;4.13;;;13.70;99.90;;;;;;5086551;28;20190;-80
2021/07/16 02:26:22;;;;;;;6.03;4.30;;;13.80;99.90;;;;;;5090933;28;20231;-80
2021/07/16 02:28:48;;;;;;;4.90;4.50;;;13.70;99.90;;;;;;5095084;28;20181;-80
2021/07/16 02:31:13;;;;;;;5.13;4.50;;;13.80;99.90;;;;;;5092233;28;20230;-80
2021/07/16 02:33:40;;;;;;;4.33;3.93;;;13.70;99.90;;;;;;5087805;28;20275;-80
2021/07/16 02:36:07;;;;;;;5.17;4.60;;;13.80;99.90;;;;;;5090186;28;20289;-81
2021/07/16 02:38:34;;;;;;;5.07;4.37;;;13.80;99.90;;;;;;5093763;28;20818;-80
2021/07/16 02:41:00;;;;;;;5.63;4.70;;;13.70;99.90;;;;;;5093409;28;20430;-81
2021/07/16 02:43:26;;;;;;;6.23;5.13;;;13.80;99.90;;;;;;5078052;28;20435;-78
2021/07/16 02:45:52;;;;;;;6.07;5.50;;;13.80;99.90;;;;;;5090094;28;20515;-78
2021/07/16 02:48:18;;;;;;;5.30;4.80;;;13.80;99.90;;;;;;5091991;28;20439;-78
2021/07/16 02:50:46;;;;;;;5.97;5.30;;;13.60;99.90;;;;;;5093977;28;20439;-77
2021/07/16 02:53:14;;;;;;;6.63;5.03;;;13.70;99.90;;;;;;5087485;28;20444;-78
2021/07/16 02:55:41;;;;;;;6.23;5.60;;;13.70;99.90;;;;;;5092001;28;20475;-78
2021/07/16 02:58:07;;;;;;;7.07;6.40;;;13.70;99.90;;;;;;5088221;28;21010;-79
2021/07/16 03:00:33;;;;;;;7.30;5.40;;;13.60;99.90;;;;;;5083260;28;20527;-79
2021/07/16 03:02:59;;;;;;;6.00;5.40;;;13.80;99.90;;;;;;5097015;28;20463;-80
2021/07/16 03:05:29;;;;;;;5.07;4.63;;;13.70;99.90;;;;;;5090529;28;20185;-80
2021/07/16 03:07:56;;;;;;;5.60;5.03;;;13.90;99.90;;;;;;5091781;28;20446;-81
2021/07/16 03:10:25;;;;;;;4.70;4.30;;;14.00;99.90;;;;;;5080214;28;20470;-80
2021/07/16 03:12:53;;;;;;;5.17;4.67;;;13.90;99.90;;;;;;5086925;28;20802;-80
2021/07/16 03:15:20;;;;;;;4.63;3.73;;;14.10;99.90;;;;;;5090636;28;20479;-81
2021/07/16 03:17:46;;;;;;;4.00;3.70;;;13.80;99.90;;;;;;5081724;28;20436;-81
2021/07/16 03:20:15;;;;;;;7.63;3.67;;;13.70;99.90;;;;;;5091861;28;20437;-80
2021/07/16 03:22:40;;;;;;;5.10;3.97;;;14.10;99.90;;;;;;5093145;28;20496;-80
2021/07/16 03:25:09;;;;;;;4.37;3.97;;;13.80;99.90;;;;;;5092508;28;20933;-81
2021/07/16 03:27:35;;;;;;;3.97;3.67;;;14.00;99.90;;;;;;5086713;28;20186;-81
2021/07/16 03:30:01;;;;;;;4.40;4.00;;;13.80;99.90;;;;;;5081762;28;20456;-81
2021/07/16 03:32:26;;;;;;;4.17;3.77;;;13.70;99.90;;;;;;5079006;28;20474;-79
2021/07/16 03:34:52;;;;;;;4.73;4.40;;;13.90;99.90;;;;;;5092678;28;20197;-81
2021/07/16 03:37:18;;;;;;;4.80;4.40;;;13.70;99.90;;;;;;5087779;28;20516;-81
2021/07/16 03:39:44;;;;;;;5.40;4.40;;;13.90;99.90;;;;;;5088886;28;20180;-80
2021/07/16 03:42:10;;;;;;;4.13;3.73;;;13.80;99.90;;;;;;5093787;28;21168;-81
2021/07/16 03:44:35;;;;;;;4.87;4.43;;;13.80;99.90;;;;;;5092497;28;20439;-80
2021/07/16 03:47:01;;;;;;;5.30;4.40;;;13.80;99.90;;;;;;5086622;28;20192;-79
2021/07/16 03:49:28;;;;;;;4.40;4.00;;;14.00;99.90;;;;;;5092688;28;20795;-81
2021/07/16 03:51:54;;;;;;;4.97;4.57;;;14.10;99.90;;;;;;5093444;28;20697;-79
2021/07/16 03:54:20;;;;;;;4.73;4.17;;;13.90;99.90;;;;;;5091863;28;20532;-79
2021/07/16 03:56:45;;;;;;;4.90;4.40;;;14.10;99.90;;;;;;5092349;28;20833;-80
2021/07/16 03:59:15;;;;;;;4.37;3.97;;;14.00;99.90;;;;;;5090569;28;20185;-79
2021/07/16 04:01:40;;;;;;;5.10;4.20;;;14.50;99.90;;;;;;5090828;28;20603;-80
2021/07/16 04:04:06;;;;;;;3.73;3.43;;;14.10;99.90;;;;;;5092398;28;20467;-79
2021/07/16 04:06:33;;;;;;;3.73;3.43;;;14.40;99.90;;;;;;5086490;28;20273;-79
2021/07/16 04:09:26;;;;;;;4.20;3.80;;;14.20;99.90;;;;;;5090724;28;20575;-79
2021/07/16 04:12:11;;;;;;;4.70;4.30;;;14.20;99.90;;;;;;5092798;28;20866;-80
2021/07/16 04:14:42;;;;;;;3.87;3.57;;;14.20;99.90;;;;;;5091956;28;20516;-79
2021/07/16 04:17:10;;;;;;;4.93;4.53;;;14.40;99.90;;;;;;5079990;28;20511;-79
2021/07/16 04:19:36;;;;;;;4.30;3.90;;;14.40;99.90;;;;;;5088652;28;20450;-79
2021/07/16 04:22:03;;;;;;;4.10;3.70;;;14.40;99.90;;;;;;5092394;28;20427;-79
2021/07/16 04:24:28;;;;;;;4.30;4.00;;;14.40;99.90;;;;;;5092442;28;20439;-80
2021/07/16 04:26:54;;;;;;;4.20;3.90;;;14.50;99.90;;;;;;5085696;28;20439;-78
2021/07/16 04:29:19;;;;;;;5.83;3.90;;;14.50;99.90;;;;;;5091164;28;20188;-79
2021/07/16 04:31:45;;;;;;;5.00;4.50;;;14.40;99.90;;;;;;5090801;28;20199;-79
2021/07/16 04:34:11;;;;;;;4.37;4.07;;;14.70;99.90;;;;;;5082003;28;20188;-80
2021/07/16 04:36:36;;;;;;;4.60;4.20;;;14.60;99.90;;;;;;5087529;28;20624;-79
2021/07/16 04:39:02;;;;;;;5.47;4.97;;;14.40;99.90;;;;;;5075698;28;20232;-79
2021/07/16 04:41:28;;;;;;;6.40;5.90;;;14.60;99.90;;;;;;5086909;28;20181;-80
2021/07/16 04:43:55;;;;;;;7.53;6.93;;;14.60;99.90;;;;;;5091252;28;20541;-80
2021/07/16 04:46:21;;;;;;;8.97;8.27;;;14.80;99.90;;;;;;5083355;28;20185;-80
2021/07/16 04:48:46;;;;;;;7.90;7.27;;;14.80;99.90;;;;;;5091629;28;20496;-80
2021/07/16 04:51:23;;;;;;;6.50;5.70;;;14.90;99.90;;;;;;5085271;28;20177;-82
2021/07/16 04:53:52;;;;;;;5.67;5.17;;;14.90;99.90;;;;;;5090798;28;20279;-82
2021/07/16 04:56:17;;;;;;;4.07;3.77;;;14.90;99.90;;;;;;5091744;28;20574;-80
2021/07/16 04:58:43;;;;;;;4.53;4.10;;;15.00;99.90;;;;;;5095344;28;20458;-82
2021/07/16 05:01:08;;;;;;;4.10;3.80;;;14.70;99.90;;;;;;5089295;28;20185;-84
2021/07/16 05:03:34;;;;;;;4.00;3.70;;;14.60;99.90;;;;;;5084772;28;20188;-81
2021/07/16 05:06:00;;;;;;;3.80;3.50;;;14.70;99.90;;;;;;5087779;28;20184;-82
2021/07/16 05:08:25;;;;;;;5.20;4.70;;;14.80;99.90;;;;;;5089892;28;20667;-82
2021/07/16 05:10:51;;;;;;;4.50;4.10;;;14.70;99.90;;;;;;5086663;28;20233;-82
2021/07/16 05:13:16;;;;;;;4.30;3.90;;;15.10;99.90;;;;;;5086904;28;20697;-81
2021/07/16 05:15:42;;;;;;;4.67;4.23;;;15.10;99.90;;;;;;5088371;28;20346;-82
2021/07/16 05:18:07;;;;;;;5.43;4.97;;;15.10;99.90;;;;;;5090078;28;20294;-82
2021/07/16 05:20:33;;;;;;;5.60;5.00;;;15.10;99.90;;;;;;5083574;28;20253;-80
2021/07/16 05:22:58;;;;;;;5.77;5.27;;;15.20;99.90;;;;;;5090742;28;20196;-82
2021/07/16 05:25:24;;;;;;;5.00;4.60;;;15.30;99.90;;;;;;5090709;28;20233;-84
2021/07/16 05:27:49;;;;;;;5.63;5.10;;;15.30;99.90;;;;;;5082592;28;20186;-80
2021/07/16 05:30:15;;;;;;;3.77;3.47;;;15.50;99.90;;;;;;5089607;28;20187;-81
2021/07/16 05:32:41;;;;;;;3.53;3.23;;;15.40;99.90;;;;;;5084588;28;20212;-81
2021/07/16 05:35:07;;;;;;;4.10;3.80;;;15.70;99.90;;;;;;5086446;28;21287;-81
2021/07/16 05:37:32;;;;;;;5.13;4.63;;;15.70;99.90;;;;;;5087326;28;20281;-81
2021/07/16 05:39:58;;;;;;;5.00;4.50;;;15.50;99.90;;;;;;5089075;28;20510;-84
2021/07/16 05:42:24;;;;;;;4.80;4.47;;;16.10;99.90;;;;;;5091931;28;20524;-82
2021/07/16 05:44:50;;;;;;;5.20;4.80;;;16.20;99.90;;;;;;5084544;28;20177;-81
2021/07/16 05:47:16;;;;;;;4.67;4.27;;;16.30;99.90;;;;;;5089822;28;20193;-81
2021/07/16 05:49:42;;;;;;;5.10;4.70;;;16.10;99.90;;;;;;5079655;28;20416;-80
2021/07/16 05:52:07;;;;;;;5.47;4.97;;;16.60;99.90;;;;;;5083692;28;20186;-81
2021/07/16 05:54:33;;;;;;;6.80;5.07;;;16.40;99.90;;;;;;5083905;28;20216;-81
2021/07/16 05:57:14;;;;;;;5.10;4.70;;;16.70;99.90;;;;;;5089714;28;20185;-82
2021/07/16 05:59:39;;;;;;;5.17;4.77;;;16.70;99.90;;;;;;5076446;28;22017;-81
2021/07/16 06:02:05;;;;;;;5.50;4.90;;;17.00;99.90;;;;;;5087194;28;20432;-81
2021/07/16 06:04:32;;;;;;;5.63;5.23;;;16.90;99.90;;;;;;5091636;28;20181;-82
2021/07/16 06:06:57;;;;;;;5.30;4.90;;;16.70;99.90;;;;;;5090359;28;20909;-83
2021/07/16 06:09:23;;;;;;;6.10;5.50;;;16.90;99.90;;;;;;5087284;28;20439;-82
2021/07/16 06:12:00;;;;;;;7.77;6.97;;;17.30;99.90;;;;;;5090359;28;20544;-82
2021/07/16 06:14:26;;;;;;;7.83;7.13;;;17.80;99.90;;;;;;5080513;28;20479;-81
2021/07/16 06:16:52;;;;;;;6.43;5.83;;;17.90;99.90;;;;;;5084313;28;20493;-81
2021/07/16 06:19:19;;;;;;;6.50;5.90;;;18.10;99.90;;;;;;5088884;28;20296;-81
2021/07/16 06:21:45;;;;;;;7.97;7.27;;;18.00;99.90;;;;;;5092230;28;20431;-82
2021/07/16 06:24:11;;;;;;;8.40;7.60;;;18.00;99.90;;;;;;5101593;28;20439;-81
2021/07/16 06:26:36;;;;;;;6.03;5.53;;;18.00;99.90;;;;;;5091827;28;20466;-82
2021/07/16 06:29:03;;;;;;;7.10;6.27;;;18.20;99.90;;;;;;5091107;28;20837;-81
2021/07/16 06:31:29;;;;;;;9.10;7.80;;;18.50;99.90;;;;;;5091645;28;20243;-82
2021/07/16 06:33:54;;;;;;;8.10;7.30;;;18.70;99.90;;;;;;5092182;28;20432;-81
2021/07/16 06:36:20;;;;;;;6.57;6.07;;;18.90;99.90;;;;;;5081589;28;20234;-83
2021/07/16 06:38:45;;;;;;;8.40;7.60;;;18.70;99.90;;;;;;5091201;28;20198;-82
2021/07/16 06:41:11;;;;;;;13.07;11.73;;;19.20;99.90;;;;;;5093885;28;20305;-85
2021/07/16 06:43:37;;;;;;;12.23;11.13;;;18.90;99.90;;;;;;5093112;28;20206;-83
2021/07/16 06:46:03;;;;;;;10.70;9.63;;;19.20;99.90;;;;;;5089508;28;20522;-83
2021/07/16 06:48:28;;;;;;;12.80;11.47;;;19.60;99.90;;;;;;5090552;28;20441;-85
2021/07/16 06:50:54;;;;;;;14.30;12.90;;;19.50;99.90;;;;;;5094298;28;20179;-84
2021/07/16 06:53:19;;;;;;;12.57;11.37;;;19.20;99.90;;;;;;5095142;28;20175;-85
2021/07/16 06:55:45;;;;;;;12.70;11.30;;;19.60;99.90;;;;;;5094803;28;20633;-84
2021/07/16 06:58:10;;;;;;;13.23;11.93;;;19.40;99.90;;;;;;5093998;28;20179;-86
2021/07/16 07:00:36;;;;;;;12.43;11.17;;;19.60;99.90;;;;;;5094395;28;20187;-84
2021/07/16 07:03:02;;;;;;;10.77;9.77;;;20.10;99.90;;;;;;5094314;28;20669;-83
2021/07/16 07:05:28;;;;;;;11.53;10.33;;;20.70;99.90;;;;;;5095128;28;20271;-84
2021/07/16 07:07:53;;;;;;;11.70;10.50;;;21.20;99.90;;;;;;5094102;28;20193;-84
2021/07/16 07:10:19;;;;;;;10.50;9.50;;;21.60;99.90;;;;;;5092300;28;20470;-86
2021/07/16 07:12:45;;;;;;;10.60;9.70;;;21.50;99.90;;;;;;5092683;28;20271;-88
2021/07/16 07:15:12;;;;;;;9.27;8.47;;;21.70;99.90;;;;;;5093258;28;20485;-87
2021/07/16 07:17:39;;;;;;;10.20;9.33;;;21.80;99.90;;;;;;5094054;28;20192;-85
2021/07/16 07:20:05;;;;;;;10.47;9.57;;;21.60;99.90;;;;;;5093483;28;20438;-86
2021/07/16 07:22:30;;;;;;;9.63;8.83;;;21.20;99.90;;;;;;5081943;28;20645;-85
2021/07/16 07:24:56;;;;;;;9.80;8.90;;;21.30;99.90;;;;;;5093319;28;20946;-86
2021/07/16 07:27:22;;;;;;;7.77;7.10;;;21.20;99.90;;;;;;5093742;28;20648;-85
2021/07/16 07:29:47;;;;;;;7.50;7.00;;;21.30;99.90;;;;;;5094432;28;20183;-86
2021/07/16 07:32:13;;;;;;;8.07;7.37;;;21.30;99.90;;;;;;5093183;28;20181;-85
2021/07/16 07:34:39;;;;;;;10.20;9.07;;;21.40;99.90;;;;;;5093951;28;20243;-86
2021/07/16 07:37:05;;;;;;;10.10;9.37;;;21.10;99.90;;;;;;5090529;28;20219;-85
2021/07/16 07:39:31;;;;;;;7.87;7.23;;;21.00;99.90;;;;;;5090313;28;20439;-84
2021/07/16 07:41:57;;;;;;;10.93;9.87;;;20.90;99.90;;;;;;5091716;28;20177;-84
2021/07/16 07:44:23;;;;;;;9.70;8.80;;;20.80;99.90;;;;;;5093051;28;21187;-83
2021/07/16 07:46:48;;;;;;;8.20;7.50;;;20.90;99.90;;;;;;5093047;28;20434;-85
2021/07/16 07:49:14;;;;;;;8.93;8.17;;;21.10;99.90;;;;;;5092410;28;20435;-83
2021/07/16 07:51:41;;;;;;;8.13;7.50;;;21.00;99.90;;;;;;5094155;28;20636;-83
2021/07/16 07:54:08;;;;;;;8.03;7.33;;;21.20;99.90;;;;;;5093196;28;20502;-83
2021/07/16 07:56:33;;;;;;;9.83;9.10;;;22.00;99.90;;;;;;5092852;28;20860;-84
2021/07/16 07:59:00;;;;;;;7.77;7.17;;;22.60;99.90;;;;;;5092684;28;20528;-83
2021/07/16 08:01:25;;;;;;;7.33;6.83;;;23.40;99.90;;;;;;5092791;28;20196;-83
2021/07/16 08:03:51;;;;;;;6.87;6.37;;;23.90;99.90;;;;;;5092763;28;20424;-83
2021/07/16 08:06:17;;;;;;;7.00;6.50;;;23.90;99.90;;;;;;5092581;28;20192;-83
2021/07/16 08:08:43;;;;;;;6.80;6.30;;;24.40;99.90;;;;;;5092580;28;20654;-85
2021/07/16 08:11:08;;;;;;;6.43;5.83;;;24.40;99.90;;;;;;5088923;28;20247;-83
2021/07/16 08:13:34;;;;;;;5.90;5.50;;;24.90;95.10;;;;;;5091903;28;20923;-82
2021/07/16 08:16:02;;;;;;;6.37;5.87;;;25.10;95.20;;;;;;5090757;28;20680;-83
2021/07/16 08:18:29;;;;;;;6.43;5.93;;;25.70;91.10;;;;;;5090886;28;20649;-83
2021/07/16 08:20:55;;;;;;;7.10;6.50;;;25.20;88.50;;;;;;5091067;28;20440;-84
2021/07/16 08:23:22;;;;;;;5.30;4.90;;;25.70;92.10;;;;;;5092119;28;20440;-85
2021/07/16 08:25:48;;;;;;;5.70;5.40;;;25.90;89.70;;;;;;5092234;28;20752;-83
2021/07/16 08:28:13;;;;;;;6.17;5.77;;;26.30;89.40;;;;;;5089153;28;20442;-84
2021/07/16 08:30:39;;;;;;;6.30;5.90;;;25.80;84.00;;;;;;5089520;28;20191;-83
2021/07/16 08:33:05;;;;;;;5.40;5.10;;;25.50;82.50;;;;;;5092398;28;20187;-83
2021/07/16 08:35:31;;;;;;;6.53;5.93;;;25.10;81.30;;;;;;5092230;28;20271;-81
2021/07/16 08:37:56;;;;;;;5.90;5.50;;;25.10;82.90;;;;;;5092564;28;20465;-80
2021/07/16 08:40:22;;;;;;;6.00;5.60;;;24.60;85.60;;;;;;5089321;28;20316;-80
2021/07/16 08:42:49;;;;;;;7.30;6.80;;;24.80;89.90;;;;;;5091772;28;20194;-82
2021/07/16 08:45:15;;;;;;;6.67;6.17;;;24.20;87.50;;;;;;5092360;28;20449;-80
2021/07/16 08:47:41;;;;;;;7.40;6.80;;;24.00;86.90;;;;;;5092236;28;20442;-83
2021/07/16 08:50:12;;;;;;;7.20;6.70;;;24.50;90.70;;;;;;5091912;28;20477;-82
2021/07/16 08:52:39;;;;;;;6.90;6.40;;;24.60;93.20;;;;;;5083978;28;20194;-80
2021/07/16 08:55:05;;;;;;;6.40;5.90;;;24.80;87.30;;;;;;5090676;28;20464;-83
2021/07/16 08:57:31;;;;;;;5.87;5.47;;;25.50;90.00;;;;;;5087332;28;20524;-81
2021/07/16 08:59:57;;;;;;;5.43;5.03;;;26.50;88.10;;;;;;5092305;28;20459;-81
2021/07/16 09:02:27;;;;;;;5.00;4.60;;;26.80;80.40;;;;;;5087145;28;20218;-81
2021/07/16 09:04:58;;;;;;;5.13;4.83;;;27.20;77.10;;;;;;5088267;28;20485;-83
2021/07/16 09:07:24;;;;;;;4.80;4.40;;;28.50;79.80;;;;;;5090586;28;20456;-82
2021/07/16 09:09:49;;;;;;;4.83;4.53;;;30.00;69.10;;;;;;5090991;28;20479;-83
2021/07/16 09:12:15;;;;;;;5.43;5.03;;;31.20;60.90;;;;;;5089096;28;20191;-80
2021/07/16 09:14:42;;;;;;;4.90;4.50;;;32.20;55.50;;;;;;5091928;28;20220;-81
2021/07/16 09:17:10;;;;;;;3.30;3.10;;;33.30;54.70;;;;;;5092083;28;20200;-81
2021/07/16 09:19:45;;;;;;;4.40;4.00;;;34.70;51.90;;;;;;5091037;28;20941;-82
2021/07/16 09:22:20;;;;;;;3.67;3.47;;;35.50;48.00;;;;;;5090726;28;20444;-81
2021/07/16 09:24:53;;;;;;;4.50;4.20;;;36.00;46.20;;;;;;5081513;28;20501;-82
2021/07/16 09:27:42;;;;;;;5.20;4.83;;;35.20;43.50;;;;;;5088325;28;20813;-84
2021/07/16 09:30:21;;;;;;;3.70;3.50;;;34.80;47.40;;;;;;5082949;28;20493;-83
2021/07/16 09:33:05;;;;;;;4.40;4.10;;;35.60;45.20;;;;;;5091475;28;20472;-83
2021/07/16 09:35:40;;;;;;;4.30;4.00;;;35.10;41.00;;;;;;5084620;28;20483;-84
2021/07/16 09:38:12;;;;;;;4.87;4.57;;;33.70;42.70;;;;;;5090706;28;20460;-84
2021/07/16 09:40:39;;;;;;;3.80;3.60;;;33.40;43.50;;;;;;5092612;28;21336;-83
2021/07/16 09:43:09;;;;;;;4.73;4.43;;;32.70;45.60;;;;;;5091192;28;20501;-84
2021/07/16 09:45:35;;;;;;;4.30;4.00;;;33.00;49.70;;;;;;5084889;28;20439;-83
2021/07/16 09:48:33;;;;;;;4.10;3.90;;;34.50;49.30;;;;;;5090402;28;20433;-85
2021/07/16 09:51:08;;;;;;;3.90;3.70;;;35.70;45.20;;;;;;5086077;28;20450;-85
2021/07/16 09:53:52;;;;;;;3.33;3.20;;;36.90;40.80;;;;;;5083920;28;20777;-85
2021/07/16 09:56:25;;;;;;;4.00;3.80;;;36.70;39.20;;;;;;5090538;28;20542;-84
2021/07/16 09:59:13;;;;;;;4.40;4.20;;;35.60;40.00;;;;;;5091340;28;20484;-83
2021/07/16 10:01:41;;;;;;;4.10;3.80;;;34.90;42.00;;;;;;5085026;28;20440;-85
2021/07/16 10:04:09;;;;;;;3.80;3.60;;;34.30;42.50;;;;;;5082682;28;20427;-85
2021/07/16 10:06:35;;;;;;;4.33;4.03;;;33.30;42.60;;;;;;5079401;28;20435;-84
2021/07/16 10:09:00;;;;;;;4.30;4.00;;;32.10;44.00;;;;;;5074860;28;20954;-84
2021/07/16 10:11:28;;;;;;;4.40;4.10;;;31.20;46.40;;;;;;5094609;28;20470;-82
2021/07/16 10:13:59;;;;;;;4.47;4.17;;;30.10;47.60;;;;;;5094224;28;20237;-83
2021/07/16 10:16:24;;;;;;;5.00;4.70;;;29.40;49.70;;;;;;5091350;28;20591;-82
2021/07/16 10:18:53;;;;;;;4.13;3.93;;;29.40;52.40;;;;;;5095158;28;20444;-83
2021/07/16 10:21:20;;;;;;;4.50;4.20;;;29.70;52.40;;;;;;5093475;28;20262;-83
2021/07/16 10:23:47;;;;;;;3.97;3.77;;;30.00;49.90;;;;;;5094475;28;20518;-82
2021/07/16 10:26:14;;;;;;;4.30;4.00;;;31.50;50.50;;;;;;5091821;28;20538;-84
2021/07/16 10:28:41;;;;;;;3.47;3.27;;;31.80;45.60;;;;;;5087142;28;20521;-84
2021/07/16 10:31:33;;;;;;;4.20;3.83;;;33.30;43.50;;;;;;5095033;28;20776;-85
2021/07/16 10:34:01;;;;;;;4.33;3.67;;;35.20;41.70;;;;;;5078101;28;20443;-86
2021/07/16 10:36:44;;;;;;;4.00;3.67;;;36.90;39.20;;;;;;5094863;28;20535;-85
2021/07/16 10:39:12;;;;;;;3.70;3.50;;;38.00;34.40;;;;;;5089160;28;20796;-83
2021/07/16 10:41:41;;;;;;;3.70;3.50;;;38.60;32.80;;;;;;5094502;28;21248;-82
2021/07/16 10:44:12;;;;;;;3.83;3.63;;;37.00;32.80;;;;;;5095099;28;20998;-83
2021/07/16 10:46:43;;;;;;;3.93;3.60;;;37.40;34.50;;;;;;5094697;28;20431;-83
2021/07/16 10:49:09;;;;;;;3.80;3.50;;;37.70;34.30;;;;;;5094958;28;20443;-83
2021/07/16 10:51:36;;;;;;;2.87;2.77;;;38.90;34.20;;;;;;5088009;28;20542;-83
2021/07/16 10:54:05;;;;;;;3.40;3.20;;;40.00;31.80;;;;;;5093971;28;20964;-83
2021/07/16 10:56:39;;;;;;;3.33;3.13;;;39.50;28.90;;;;;;5086601;28;20497;-83
2021/07/16 10:59:05;;;;;;;2.77;2.57;;;39.90;30.60;;;;;;5092147;28;20519;-83
2021/07/16 11:01:41;;;;;;;2.80;2.60;;;39.40;28.90;;;;;;5094700;28;20423;-82
2021/07/16 11:04:28;;;;;;;2.63;2.53;;;39.40;29.40;;;;;;5093864;28;20491;-80
2021/07/16 11:06:55;;;;;;;2.90;2.80;;;40.40;29.70;;;;;;5093381;28;20451;-81
2021/07/16 11:09:32;;;;;;;2.97;2.80;;;40.90;30.00;;;;;;5093971;28;20480;-81
2021/07/16 11:12:24;;;;;;;2.90;2.70;;;40.80;29.30;;;;;;5093814;28;20462;-82
2021/07/16 11:14:51;;;;;;;2.30;2.20;;;40.90;28.80;;;;;;5090907;28;20450;-82
2021/07/16 11:17:36;;;;;;;2.63;2.03;;;40.90;28.20;;;;;;5093655;28;20496;-82
2021/07/16 11:20:11;;;;;;;2.40;2.20;;;42.00;27.20;;;;;;5091915;28;20439;-81
2021/07/16 11:23:03;;;;;;;2.20;2.10;;;41.60;26.40;;;;;;5093174;28;20438;-80
2021/07/16 11:25:29;;;;;;;2.20;2.10;;;40.50;26.80;;;;;;5090036;28;20540;-81
2021/07/16 11:27:55;;;;;;;2.17;2.07;;;39.40;28.40;;;;;;5091109;28;20438;-81
2021/07/16 11:30:21;;;;;;;2.40;2.30;;;38.80;29.80;;;;;;5086473;28;20802;-80
2021/07/16 11:32:47;;;;;;;2.63;2.43;;;37.80;30.30;;;;;;5090130;28;20450;-81
2021/07/16 11:35:13;;;;;;;2.67;2.47;;;36.70;32.60;;;;;;5094175;28;20438;-81
2021/07/16 11:37:44;;;;;;;2.70;2.50;;;36.50;33.90;;;;;;5095112;28;20222;-81
2021/07/16 11:40:27;;;;;;;2.87;2.77;;;35.80;34.50;;;;;;5091063;28;20444;-82
2021/07/16 11:42:58;;;;;;;3.00;2.80;;;35.00;35.50;;;;;;5091440;28;20441;-80
2021/07/16 11:45:32;;;;;;;2.67;2.57;;;34.30;37.00;;;;;;5082402;28;20477;-81
2021/07/16 11:48:14;;;;;;;2.83;2.60;;;33.80;37.80;;;;;;5091878;28;20446;-79
2021/07/16 11:50:40;;;;;;;4.30;3.00;;;33.40;38.70;;;;;;5093682;28;20440;-78
2021/07/16 11:53:07;;;;;;;3.17;2.97;;;32.60;39.50;;;;;;5091920;28;20442;-77
2021/07/16 11:55:32;;;;;;;2.53;2.43;;;31.90;40.90;;;;;;5087593;28;21011;-77
2021/07/16 11:58:00;;;;;;;3.30;3.10;;;31.00;41.80;;;;;;5088096;28;20461;-77
2021/07/16 12:00:40;;;;;;;3.13;2.90;;;30.10;42.90;;;;;;5091687;28;20266;-77
2021/07/16 12:03:15;;;;;;;2.80;2.60;;;29.30;45.10;;;;;;5092040;28;20535;-78
2021/07/16 12:05:54;;;;;;;3.10;2.93;;;28.50;46.80;;;;;;5085443;28;20483;-78
2021/07/16 12:08:29;;;;;;;2.50;2.40;;;27.90;48.50;;;;;;5091592;28;20446;-78
2021/07/16 12:11:12;;;;;;;3.03;2.83;;;27.40;50.50;;;;;;5092496;28;21016;-80
2021/07/16 12:13:41;;;;;;;2.47;2.37;;;27.20;52.30;;;;;;5092368;28;20504;-79
2021/07/16 12:16:09;;;;;;;3.87;2.40;;;27.10;51.50;;;;;;5092301;28;20442;-78
2021/07/16 12:18:37;;;;;;;4.10;2.60;;;27.00;51.80;;;;;;5091851;28;20434;-80
2021/07/16 12:21:07;;;;;;;3.00;2.80;;;26.80;52.70;;;;;;5092372;28;20513;-78
2021/07/16 12:23:34;;;;;;;2.30;2.20;;;28.00;53.20;;;;;;5090189;28;20431;-79
2021/07/16 12:26:22;;;;;;;2.30;2.10;;;29.00;50.20;;;;;;5092064;28;20560;-80
2021/07/16 12:28:50;;;;;;;2.20;2.10;;;29.90;47.70;;;;;;5085484;28;20475;-79
2021/07/16 12:31:22;;;;;;;2.30;2.20;;;30.60;45.80;;;;;;5092959;28;20945;-79
2021/07/16 12:33:48;;;;;;;2.47;2.37;;;30.50;43.70;;;;;;5089615;28;20445;-79
2021/07/16 12:36:28;;;;;;;2.10;2.00;;;29.90;44.40;;;;;;5092333;28;20430;-79
2021/07/16 12:38:56;;;;;;;1.90;1.70;;;29.40;46.00;;;;;;5091814;28;20199;-78
2021/07/16 12:41:23;;;;;;;2.03;1.93;;;28.60;45.80;;;;;;5091899;28;20450;-76
2021/07/16 12:43:49;;;;;;;2.20;2.10;;;28.10;47.90;;;;;;5093141;28;20440;-85
2021/07/16 12:46:27;;;;;;;2.43;2.33;;;27.80;48.60;;;;;;5093215;28;20828;-86
2021/07/16 12:48:53;;;;;;;1.90;1.80;;;27.50;50.60;;;;;;5092571;28;20447;-80
2021/07/16 12:51:19;;;;;;;2.40;2.30;;;27.20;51.10;;;;;;5091982;28;20467;-79